Terminal Aerodrome Forecast
Issued by NWS

Home | Current Version | Previous Version | Text Only | Print | Product List | Glossary On
Versions: 1 2 3 4 5 6 7 8 9 10 11 12
649
FTUS46 KSGX 291120
TAFPSP
TAF
KPSP 291120Z 2912/3012 32007KT P6SM SKC
     FM291700 12007KT P6SM SCT080
     FM300300 32006KT P6SM SKC=

USA.gov is the U.S. government's official web portal to all federal, state and local government web resources and services.